Time;durP1;ratioP1;P1;durP2;ratioP2;P2;SDS_P1;SDS_P2;PMS_P1;PMS_P2;Temp;Humidity;BMP_temperature;BMP_pressure;BME280_temperature;BME280_humidity;BME280_pressure;Samples;Min_cycle;Max_cycle;Signal;HPM_P1;HPM_P2
2023/03/22 00:00:34;;;;;;;10.40;2.28;;;;;;;;;;5058461;28;20034;-71
2023/03/22 00:02:59;;;;;;;9.77;3.95;;;;;;;;;;5060736;28;20021;-71
2023/03/22 00:05:25;;;;;;;8.82;2.08;;;;;;;;;;5056188;28;20466;-71
2023/03/22 00:07:53;;;;;;;9.50;3.20;;;;;;;;;;5068556;28;20376;-71
2023/03/22 00:10:18;;;;;;;12.30;4.53;;;;;;;;;;5055701;28;20096;-71
2023/03/22 00:12:43;;;;;;;13.95;4.78;;;;;;;;;;5061193;28;20111;-71
2023/03/22 00:15:10;;;;;;;10.32;4.25;;;;;;;;;;5060741;28;20505;-71
2023/03/22 00:17:35;;;;;;;11.38;4.85;;;;;;;;;;5053469;28;20024;-71
2023/03/22 00:20:01;;;;;;;19.70;4.85;;;;;;;;;;5063333;28;20640;-71
2023/03/22 00:22:27;;;;;;;12.40;5.40;;;;;;;;;;5059681;28;20501;-71
2023/03/22 00:24:52;;;;;;;17.13;5.15;;;;;;;;;;5056298;28;20033;-71
2023/03/22 00:27:17;;;;;;;10.65;4.45;;;;;;;;;;5058080;28;20025;-71
2023/03/22 00:29:42;;;;;;;14.65;6.88;;;;;;;;;;5066818;28;20513;-71
2023/03/22 00:32:08;;;;;;;9.10;3.10;;;;;;;;;;5059781;28;20071;-71
2023/03/22 00:34:33;;;;;;;8.80;4.38;;;;;;;;;;5062087;28;20755;-71
2023/03/22 00:36:58;;;;;;;11.32;5.40;;;;;;;;;;5057108;28;20470;-71
2023/03/22 00:39:23;;;;;;;11.50;5.15;;;;;;;;;;5063558;28;20024;-71
2023/03/22 00:41:50;;;;;;;10.90;5.43;;;;;;;;;;5050922;28;20021;-71
2023/03/22 00:44:15;;;;;;;14.68;5.45;;;;;;;;;;5059708;28;20012;-71
2023/03/22 00:46:40;;;;;;;8.43;4.50;;;;;;;;;;5067365;28;20576;-71
2023/03/22 00:49:05;;;;;;;19.20;6.28;;;;;;;;;;5061278;28;20024;-71
2023/03/22 00:51:30;;;;;;;6.47;3.90;;;;;;;;;;5069867;28;20088;-72
2023/03/22 00:53:56;;;;;;;6.53;3.08;;;;;;;;;;5066089;28;20441;-73
2023/03/22 00:56:21;;;;;;;8.32;4.40;;;;;;;;;;5059701;28;20021;-73
2023/03/22 00:58:47;;;;;;;18.15;6.18;;;;;;;;;;5053317;28;20460;-72
2023/03/22 01:01:13;;;;;;;9.90;5.93;;;;;;;;;;5051476;28;20025;-72
2023/03/22 01:03:38;;;;;;;11.73;5.18;;;;;;;;;;5058228;28;20056;-72
2023/03/22 01:06:03;;;;;;;15.10;6.60;;;;;;;;;;5060735;28;20017;-72
2023/03/22 01:08:32;;;;;;;12.68;6.25;;;;;;;;;;5059542;28;20067;-72
2023/03/22 01:10:57;;;;;;;10.43;6.38;;;;;;;;;;5063373;28;20025;-72
2023/03/22 01:13:23;;;;;;;15.05;5.90;;;;;;;;;;5058289;28;20036;-72
2023/03/22 01:15:51;;;;;;;12.77;6.30;;;;;;;;;;5060087;28;20504;-73
2023/03/22 01:18:16;;;;;;;14.27;5.80;;;;;;;;;;5057289;28;20091;-73
2023/03/22 01:20:41;;;;;;;12.13;4.75;;;;;;;;;;5068399;28;20025;-72
2023/03/22 01:23:06;;;;;;;14.02;6.32;;;;;;;;;;5060941;28;20095;-72
2023/03/22 01:25:32;;;;;;;13.75;5.80;;;;;;;;;;5053802;28;20140;-72
2023/03/22 01:27:57;;;;;;;16.85;6.25;;;;;;;;;;5053700;28;20012;-73
2023/03/22 01:30:22;;;;;;;14.75;5.90;;;;;;;;;;5070657;28;20412;-73
2023/03/22 01:32:48;;;;;;;14.27;6.60;;;;;;;;;;5064352;28;20020;-72
2023/03/22 01:35:13;;;;;;;12.45;3.70;;;;;;;;;;5056525;28;20021;-72
2023/03/22 01:37:38;;;;;;;8.57;3.40;;;;;;;;;;5060384;28;20381;-72
2023/03/22 01:40:04;;;;;;;12.27;4.82;;;;;;;;;;5064955;28;20356;-72
2023/03/22 01:42:29;;;;;;;4.60;3.10;;;;;;;;;;5061797;28;20064;-72
2023/03/22 01:45:13;;;;;;;14.80;5.93;;;;;;;;;;5056182;28;20222;-72
2023/03/22 01:47:50;;;;;;;15.18;5.03;;;;;;;;;;5060443;28;20358;-72
2023/03/22 01:50:16;;;;;;;13.25;5.82;;;;;;;;;;5058867;28;20108;-72
2023/03/22 01:52:42;;;;;;;12.00;5.32;;;;;;;;;;5059063;28;20120;-72
2023/03/22 01:55:10;;;;;;;20.88;7.05;;;;;;;;;;5055534;28;20052;-72
2023/03/22 01:57:36;;;;;;;15.55;5.53;;;;;;;;;;5068267;28;20029;-72
2023/03/22 02:00:07;;;;;;;12.18;6.03;;;;;;;;;;5070649;28;20461;-72
2023/03/22 02:02:33;;;;;;;15.70;5.15;;;;;;;;;;5065695;28;20054;-72
2023/03/22 02:04:59;;;;;;;5.75;3.38;;;;;;;;;;5056062;28;20032;-72
2023/03/22 02:07:26;;;;;;;10.32;5.55;;;;;;;;;;5061398;28;20056;-72
2023/03/22 02:09:54;;;;;;;14.13;5.40;;;;;;;;;;5068224;28;20458;-72
2023/03/22 02:12:25;;;;;;;12.40;4.88;;;;;;;;;;5054641;28;20109;-72
2023/03/22 02:15:08;;;;;;;12.90;4.35;;;;;;;;;;5062933;28;20027;-72
2023/03/22 02:17:36;;;;;;;12.68;5.53;;;;;;;;;;5060580;28;20063;-72
2023/03/22 02:20:10;;;;;;;15.88;5.65;;;;;;;;;;5064105;28;20016;-72
2023/03/22 02:22:39;;;;;;;12.43;4.68;;;;;;;;;;5060310;28;20070;-72
2023/03/22 02:25:04;;;;;;;13.40;4.90;;;;;;;;;;5055080;28;20458;-72
2023/03/22 02:27:48;;;;;;;19.15;3.78;;;;;;;;;;5064793;28;20027;-73
2023/03/22 02:30:24;;;;;;;7.55;4.03;;;;;;;;;;5072160;28;20263;-72
2023/03/22 02:33:08;;;;;;;12.18;5.45;;;;;;;;;;5055599;28;20024;-72
2023/03/22 02:35:49;;;;;;;6.82;3.20;;;;;;;;;;5061086;28;20033;-72
2023/03/22 02:38:33;;;;;;;11.88;5.85;;;;;;;;;;5063694;28;20107;-72
2023/03/22 02:41:14;;;;;;;6.53;2.90;;;;;;;;;;5059220;28;20028;-72
2023/03/22 02:43:57;;;;;;;15.10;4.80;;;;;;;;;;5062292;28;20025;-72
2023/03/22 02:46:41;;;;;;;12.82;5.03;;;;;;;;;;5057473;28;20489;-73
2023/03/22 02:49:13;;;;;;;13.52;5.22;;;;;;;;;;5063802;28;20028;-71
2023/03/22 02:52:10;;;;;;;12.60;5.25;;;;;;;;;;5057931;28;20372;-72
2023/03/22 02:54:40;;;;;;;11.50;5.40;;;;;;;;;;5055854;28;20044;-72
2023/03/22 02:57:10;;;;;;;9.63;4.07;;;;;;;;;;5056355;28;20051;-72
2023/03/22 02:59:37;;;;;;;7.38;3.78;;;;;;;;;;5065862;28;20027;-73
2023/03/22 03:02:03;;;;;;;16.30;5.82;;;;;;;;;;5061807;28;20039;-71
2023/03/22 03:04:30;;;;;;;13.88;4.82;;;;;;;;;;5060411;28;20017;-71
2023/03/22 03:06:57;;;;;;;12.40;6.18;;;;;;;;;;5063680;28;20023;-71
2023/03/22 03:09:22;;;;;;;11.32;4.82;;;;;;;;;;5065591;28;20027;-71
2023/03/22 03:11:49;;;;;;;8.68;4.78;;;;;;;;;;5059428;28;20008;-71
2023/03/22 03:14:21;;;;;;;7.28;4.18;;;;;;;;;;5069614;28;20500;-71
2023/03/22 03:16:50;;;;;;;13.63;6.00;;;;;;;;;;5061301;28;20029;-71
2023/03/22 03:19:22;;;;;;;16.10;3.78;;;;;;;;;;5063901;28;20016;-71
2023/03/22 03:21:54;;;;;;;19.23;6.03;;;;;;;;;;5061838;28;20027;-71
2023/03/22 03:24:25;;;;;;;16.58;6.95;;;;;;;;;;5066449;28;20017;-71
2023/03/22 03:27:11;;;;;;;14.65;6.13;;;;;;;;;;5055601;28;20513;-71
2023/03/22 03:29:36;;;;;;;13.20;6.63;;;;;;;;;;5057640;28;20098;-71
2023/03/22 03:32:05;;;;;;;9.05;3.53;;;;;;;;;;5053216;28;20024;-71
2023/03/22 03:34:48;;;;;;;16.58;5.95;;;;;;;;;;5053769;28;21811;-71
2023/03/22 03:37:16;;;;;;;11.10;4.13;;;;;;;;;;5057095;28;20024;-71
2023/03/22 03:39:45;;;;;;;17.10;5.53;;;;;;;;;;5061556;28;20470;-71
2023/03/22 03:42:13;;;;;;;6.68;3.53;;;;;;;;;;5059467;28;20492;-71
2023/03/22 03:44:39;;;;;;;13.57;6.68;;;;;;;;;;5068951;28;20046;-71
2023/03/22 03:47:06;;;;;;;15.60;6.35;;;;;;;;;;5065771;28;20497;-71
2023/03/22 03:49:31;;;;;;;14.77;4.07;;;;;;;;;;5063360;28;20024;-71
2023/03/22 03:51:58;;;;;;;10.43;5.03;;;;;;;;;;5063701;28;20026;-71
2023/03/22 03:54:23;;;;;;;12.02;4.00;;;;;;;;;;5067158;28;20107;-71
2023/03/22 03:56:49;;;;;;;13.63;6.07;;;;;;;;;;5059447;28;20120;-71
2023/03/22 03:59:15;;;;;;;14.63;5.95;;;;;;;;;;5067653;28;20466;-71
2023/03/22 04:01:49;;;;;;;23.50;6.53;;;;;;;;;;5062852;28;20032;-71
2023/03/22 04:04:25;;;;;;;12.35;5.88;;;;;;;;;;5064321;28;20021;-68
2023/03/22 04:07:00;;;;;;;17.58;6.78;;;;;;;;;;5062258;28;20029;-71
2023/03/22 04:09:26;;;;;;;13.77;5.97;;;;;;;;;;5055413;28;20017;-71
2023/03/22 04:11:52;;;;;;;11.57;6.00;;;;;;;;;;5054522;28;20021;-71
2023/03/22 04:14:17;;;;;;;12.65;5.70;;;;;;;;;;5064384;28;20535;-71
2023/03/22 04:16:43;;;;;;;11.98;4.82;;;;;;;;;;5055875;28;20446;-71
2023/03/22 04:19:08;;;;;;;11.30;6.03;;;;;;;;;;5060959;28;20020;-71
2023/03/22 04:21:33;;;;;;;19.57;6.80;;;;;;;;;;5054990;28;20033;-71
2023/03/22 04:23:58;;;;;;;14.47;5.73;;;;;;;;;;5059104;28;20279;-71
2023/03/22 04:26:23;;;;;;;22.23;7.57;;;;;;;;;;5062419;28;20362;-71
2023/03/22 04:28:48;;;;;;;12.63;6.90;;;;;;;;;;5067820;28;20309;-71
2023/03/22 04:31:14;;;;;;;15.40;6.63;;;;;;;;;;5059865;28;20017;-71
2023/03/22 04:33:39;;;;;;;21.27;7.63;;;;;;;;;;5057250;28;20374;-70
2023/03/22 04:36:09;;;;;;;19.05;7.40;;;;;;;;;;5062278;28;20251;-70
2023/03/22 04:38:34;;;;;;;15.35;6.45;;;;;;;;;;5059493;28;20029;-70
2023/03/22 04:40:59;;;;;;;12.90;5.30;;;;;;;;;;5056033;28;20032;-70
2023/03/22 04:43:24;;;;;;;19.67;7.30;;;;;;;;;;5063404;28;20020;-70
2023/03/22 04:45:50;;;;;;;15.20;6.93;;;;;;;;;;5068613;28;20683;-70
2023/03/22 04:48:16;;;;;;;12.93;7.10;;;;;;;;;;5056474;28;20274;-70
2023/03/22 04:50:41;;;;;;;19.27;8.68;;;;;;;;;;5057983;28;20025;-70
2023/03/22 04:53:07;;;;;;;16.90;6.53;;;;;;;;;;5064795;28;20345;-70
2023/03/22 04:55:33;;;;;;;12.98;6.53;;;;;;;;;;5061788;28;20024;-70
2023/03/22 04:57:58;;;;;;;11.40;5.68;;;;;;;;;;5061367;28;20036;-70
2023/03/22 05:00:23;;;;;;;15.68;5.80;;;;;;;;;;5065003;28;20032;-70
2023/03/22 05:02:48;;;;;;;10.98;6.20;;;;;;;;;;5060488;28;20091;-70
2023/03/22 05:05:14;;;;;;;14.75;4.35;;;;;;;;;;5062043;28;21995;-70
2023/03/22 05:07:39;;;;;;;14.73;6.22;;;;;;;;;;5060441;28;20017;-70
2023/03/22 05:10:05;;;;;;;15.93;4.37;;;;;;;;;;5063909;28;20016;-70
2023/03/22 05:12:30;;;;;;;15.48;8.05;;;;;;;;;;5067722;28;20286;-70
2023/03/22 05:14:55;;;;;;;23.02;9.15;;;;;;;;;;5066612;28;20036;-70
2023/03/22 05:17:21;;;;;;;13.40;4.97;;;;;;;;;;5061105;28;20108;-70
2023/03/22 05:19:46;;;;;;;18.88;8.15;;;;;;;;;;5058357;28;20478;-70
2023/03/22 05:22:12;;;;;;;22.27;7.55;;;;;;;;;;5063139;28;20013;-70
2023/03/22 05:24:38;;;;;;;11.00;4.60;;;;;;;;;;5069643;28;20016;-70
2023/03/22 05:27:03;;;;;;;6.40;3.50;;;;;;;;;;5059032;28;20077;-70
2023/03/22 05:29:28;;;;;;;8.98;4.10;;;;;;;;;;5061982;28;20024;-71
2023/03/22 05:31:53;;;;;;;9.87;4.23;;;;;;;;;;5070673;28;20024;-70
2023/03/22 05:34:19;;;;;;;6.00;3.17;;;;;;;;;;5070998;28;20393;-70
2023/03/22 05:36:45;;;;;;;7.90;3.85;;;;;;;;;;5066437;28;20055;-70
2023/03/22 05:39:10;;;;;;;8.10;3.72;;;;;;;;;;5063734;28;20389;-70
2023/03/22 05:41:35;;;;;;;8.32;4.43;;;;;;;;;;5064821;28;20032;-70
2023/03/22 05:44:00;;;;;;;7.53;3.53;;;;;;;;;;5059632;28;20032;-70
2023/03/22 05:46:25;;;;;;;11.98;4.95;;;;;;;;;;5058867;28;20028;-69
2023/03/22 05:48:51;;;;;;;12.93;5.50;;;;;;;;;;5064830;28;20025;-69
2023/03/22 05:51:18;;;;;;;12.10;5.57;;;;;;;;;;5058701;28;20759;-69
2023/03/22 05:53:44;;;;;;;9.88;4.43;;;;;;;;;;5061173;28;20263;-69
2023/03/22 05:56:10;;;;;;;10.05;5.30;;;;;;;;;;5056929;28;20032;-69
2023/03/22 05:58:35;;;;;;;9.77;3.33;;;;;;;;;;5068459;28;20024;-69
2023/03/22 06:01:07;;;;;;;9.55;3.20;;;;;;;;;;5059312;28;20020;-69
2023/03/22 06:03:32;;;;;;;13.25;5.57;;;;;;;;;;5058303;28;20074;-69
2023/03/22 06:05:58;;;;;;;13.60;4.70;;;;;;;;;;5068000;28;20063;-69
2023/03/22 06:08:23;;;;;;;16.83;6.50;;;;;;;;;;5056288;28;20021;-69
2023/03/22 06:10:49;;;;;;;5.13;1.70;;;;;;;;;;5059476;28;20424;-69
2023/03/22 06:13:15;;;;;;;10.18;4.82;;;;;;;;;;5062337;28;20412;-69
2023/03/22 06:15:40;;;;;;;9.13;4.18;;;;;;;;;;5054098;28;20096;-69
2023/03/22 06:18:05;;;;;;;13.67;3.67;;;;;;;;;;5058481;28;20025;-69
2023/03/22 06:20:30;;;;;;;10.02;3.80;;;;;;;;;;5059470;28;20791;-69
2023/03/22 06:22:56;;;;;;;13.07;5.20;;;;;;;;;;5054962;28;20500;-69
2023/03/22 06:25:21;;;;;;;12.30;4.53;;;;;;;;;;5054887;28;20397;-69
2023/03/22 06:27:47;;;;;;;12.20;3.63;;;;;;;;;;5056764;28;20046;-69
2023/03/22 06:30:12;;;;;;;3.40;1.33;;;;;;;;;;5056289;28;20028;-69
2023/03/22 06:32:37;;;;;;;27.95;3.88;;;;;;;;;;5055623;28;20379;-69
2023/03/22 06:35:02;;;;;;;12.93;4.72;;;;;;;;;;5056620;28;20159;-69
2023/03/22 06:37:28;;;;;;;10.43;3.70;;;;;;;;;;5053756;28;20029;-70
2023/03/22 06:39:53;;;;;;;7.68;3.08;;;;;;;;;;5052871;28;20130;-70
2023/03/22 06:42:18;;;;;;;9.30;4.22;;;;;;;;;;5062646;28;20038;-70
2023/03/22 06:44:43;;;;;;;9.23;3.78;;;;;;;;;;5056536;28;20020;-70
2023/03/22 06:47:09;;;;;;;5.45;2.75;;;;;;;;;;5062469;28;20884;-70
2023/03/22 06:49:34;;;;;;;12.02;3.15;;;;;;;;;;5058822;28;20132;-70
2023/03/22 06:52:00;;;;;;;5.77;2.37;;;;;;;;;;5056937;28;20017;-70
2023/03/22 06:54:25;;;;;;;11.10;2.90;;;;;;;;;;5062170;28;20358;-70
2023/03/22 06:56:50;;;;;;;15.75;4.28;;;;;;;;;;5062652;28;20025;-70
2023/03/22 06:59:16;;;;;;;5.60;2.50;;;;;;;;;;5057250;28;20035;-70
2023/03/22 07:01:41;;;;;;;9.63;4.43;;;;;;;;;;5062780;28;20329;-70
2023/03/22 07:04:06;;;;;;;16.45;2.65;;;;;;;;;;5055546;28;20106;-69
2023/03/22 07:06:31;;;;;;;11.63;3.63;;;;;;;;;;5052896;28;20025;-70
2023/03/22 07:08:57;;;;;;;11.57;3.70;;;;;;;;;;5058793;28;20747;-69
2023/03/22 07:11:22;;;;;;;8.20;2.15;;;;;;;;;;5060624;28;20054;-70
2023/03/22 07:13:47;;;;;;;3.72;2.42;;;;;;;;;;5059880;28;20690;-70
2023/03/22 07:16:13;;;;;;;5.30;2.50;;;;;;;;;;5056703;28;20384;-70
2023/03/22 07:18:38;;;;;;;11.38;3.83;;;;;;;;;;5053112;28;20028;-69
2023/03/22 07:21:03;;;;;;;5.73;2.17;;;;;;;;;;5060988;28;20443;-70
2023/03/22 07:23:28;;;;;;;7.93;2.08;;;;;;;;;;5055503;28;20294;-70
2023/03/22 07:25:54;;;;;;;13.15;3.75;;;;;;;;;;5058482;28;20092;-69
2023/03/22 07:28:20;;;;;;;8.05;2.85;;;;;;;;;;5051288;28;20025;-70
2023/03/22 07:30:45;;;;;;;9.73;3.38;;;;;;;;;;5058972;28;20028;-70
2023/03/22 07:33:11;;;;;;;15.17;3.30;;;;;;;;;;5055208;28;20021;-70
2023/03/22 07:35:37;;;;;;;6.03;1.80;;;;;;;;;;5062132;28;20721;-70
2023/03/22 07:38:02;;;;;;;8.75;2.25;;;;;;;;;;5054416;28;20074;-70
2023/03/22 07:40:28;;;;;;;4.47;1.67;;;;;;;;;;5060056;28;20025;-70
2023/03/22 07:42:53;;;;;;;9.40;2.78;;;;;;;;;;5055973;28;20593;-70
2023/03/22 07:45:19;;;;;;;3.60;1.83;;;;;;;;;;5054198;28;20727;-71
2023/03/22 07:47:44;;;;;;;7.50;3.40;;;;;;;;;;5059454;28;20274;-71
2023/03/22 07:50:13;;;;;;;7.82;2.28;;;;;;;;;;5060350;28;20072;-71
2023/03/22 07:52:39;;;;;;;3.08;1.40;;;;;;;;;;5053468;28;20025;-71
2023/03/22 07:55:04;;;;;;;6.57;2.78;;;;;;;;;;5052398;28;20028;-71
2023/03/22 07:57:30;;;;;;;9.93;3.08;;;;;;;;;;5058961;28;20482;-71
2023/03/22 07:59:55;;;;;;;7.80;2.87;;;;;;;;;;5060507;28;20125;-71
2023/03/22 08:02:21;;;;;;;10.15;3.30;;;;;;;;;;5050433;28;20366;-71
2023/03/22 08:04:47;;;;;;;6.35;2.42;;;;;;;;;;5054557;28;20496;-71
2023/03/22 08:07:14;;;;;;;4.55;2.53;;;;;;;;;;5059868;28;20028;-71
2023/03/22 08:09:39;;;;;;;9.60;3.30;;;;;;;;;;5061436;28;20025;-71
2023/03/22 08:12:05;;;;;;;9.87;2.37;;;;;;;;;;5057592;28;20095;-71
2023/03/22 08:14:30;;;;;;;10.20;2.00;;;;;;;;;;5051636;28;20255;-71
2023/03/22 08:16:55;;;;;;;10.80;3.25;;;;;;;;;;5064025;28;20549;-71
2023/03/22 08:19:20;;;;;;;9.57;2.60;;;;;;;;;;5056474;28;20044;-71
2023/03/22 08:21:46;;;;;;;5.55;1.92;;;;;;;;;;5058310;28;20294;-71
2023/03/22 08:24:11;;;;;;;5.97;1.80;;;;;;;;;;5056260;28;20017;-71
2023/03/22 08:26:38;;;;;;;17.13;3.20;;;;;;;;;;5062084;28;20363;-71
2023/03/22 08:29:03;;;;;;;8.20;2.47;;;;;;;;;;5057000;28;20017;-71
2023/03/22 08:31:28;;;;;;;5.38;1.67;;;;;;;;;;5050568;28;20029;-71
2023/03/22 08:33:53;;;;;;;5.30;1.93;;;;;;;;;;5055872;28;20055;-72
2023/03/22 08:36:21;;;;;;;3.47;1.48;;;;;;;;;;5053717;28;20286;-72
2023/03/22 08:38:46;;;;;;;9.82;2.55;;;;;;;;;;5050347;28;20048;-71
2023/03/22 08:41:11;;;;;;;4.57;1.37;;;;;;;;;;5061017;28;20059;-71
2023/03/22 08:43:37;;;;;;;9.15;2.70;;;;;;;;;;5052634;28;20321;-71
2023/03/22 08:46:02;;;;;;;7.60;2.25;;;;;;;;;;5052297;28;20044;-71
2023/03/22 08:48:29;;;;;;;4.38;1.83;;;;;;;;;;5055557;28;20033;-71
2023/03/22 08:50:54;;;;;;;7.38;1.38;;;;;;;;;;5057767;28;20214;-71
2023/03/22 08:53:20;;;;;;;9.07;2.15;;;;;;;;;;5057000;28;20095;-71
2023/03/22 08:55:45;;;;;;;6.37;1.10;;;;;;;;;;5050943;28;20060;-71
2023/03/22 08:58:11;;;;;;;7.70;1.83;;;;;;;;;;5053999;28;20012;-71
2023/03/22 09:00:37;;;;;;;6.18;0.90;;;;;;;;;;5050126;28;20372;-71
2023/03/22 09:03:03;;;;;;;6.97;1.15;;;;;;;;;;5053289;28;20024;-71
2023/03/22 09:05:28;;;;;;;4.47;0.90;;;;;;;;;;5056340;28;20025;-71
2023/03/22 09:07:53;;;;;;;3.78;0.70;;;;;;;;;;5058513;28;20850;-71
2023/03/22 09:10:18;;;;;;;3.23;0.97;;;;;;;;;;5057544;28;21282;-71
2023/03/22 09:12:43;;;;;;;3.40;0.73;;;;;;;;;;5059067;28;20284;-71
2023/03/22 09:15:09;;;;;;;3.63;0.80;;;;;;;;;;5053546;28;20282;-71
2023/03/22 09:17:35;;;;;;;2.45;1.02;;;;;;;;;;5057562;28;20822;-71
2023/03/22 09:20:00;;;;;;;3.83;1.20;;;;;;;;;;5056409;28;20028;-71
2023/03/22 09:22:25;;;;;;;5.65;1.25;;;;;;;;;;5061221;28;20029;-71
2023/03/22 09:24:51;;;;;;;3.50;1.20;;;;;;;;;;5051480;28;20025;-71
2023/03/22 09:27:16;;;;;;;4.87;1.17;;;;;;;;;;5057986;28;20413;-71
2023/03/22 09:29:41;;;;;;;9.23;1.00;;;;;;;;;;5054319;28;20267;-71
2023/03/22 09:32:06;;;;;;;5.60;1.02;;;;;;;;;;5052097;28;20356;-71
2023/03/22 09:34:31;;;;;;;2.75;0.88;;;;;;;;;;5057417;28;20035;-71
2023/03/22 09:36:57;;;;;;;7.45;2.08;;;;;;;;;;5060118;28;20378;-71
2023/03/22 09:39:22;;;;;;;3.70;0.60;;;;;;;;;;5056101;28;20100;-71
2023/03/22 09:41:50;;;;;;;1.02;0.35;;;;;;;;;;5057495;28;20426;-71
2023/03/22 09:44:21;;;;;;;1.58;0.95;;;;;;;;;;5059089;28;20033;-71
2023/03/22 09:46:48;;;;;;;4.13;1.00;;;;;;;;;;5057798;28;20016;-71
2023/03/22 09:49:18;;;;;;;5.57;1.13;;;;;;;;;;5061005;28;20029;-71
2023/03/22 09:51:45;;;;;;;2.45;0.85;;;;;;;;;;5061536;28;20728;-71
2023/03/22 09:54:20;;;;;;;4.35;1.42;;;;;;;;;;5057844;28;20021;-71
2023/03/22 09:56:52;;;;;;;5.68;1.05;;;;;;;;;;5067051;28;20104;-71
2023/03/22 09:59:38;;;;;;;2.28;0.77;;;;;;;;;;5062689;28;20032;-71
2023/03/22 10:02:11;;;;;;;7.07;1.27;;;;;;;;;;5060372;28;20024;-71
2023/03/22 10:04:42;;;;;;;3.53;0.85;;;;;;;;;;5056777;28;20102;-71
2023/03/22 10:07:07;;;;;;;2.97;0.90;;;;;;;;;;5057404;28;20021;-71
2023/03/22 10:09:39;;;;;;;3.95;1.10;;;;;;;;;;5055447;28;20036;-71
2023/03/22 10:12:10;;;;;;;4.40;1.58;;;;;;;;;;5057223;28;20124;-71
2023/03/22 10:14:40;;;;;;;1.20;0.80;;;;;;;;;;5058739;28;20028;-71
2023/03/22 10:17:08;;;;;;;5.45;1.10;;;;;;;;;;5055292;28;20021;-71
2023/03/22 10:19:34;;;;;;;2.55;0.80;;;;;;;;;;5059002;28;20115;-71
2023/03/22 10:22:01;;;;;;;2.88;0.90;;;;;;;;;;5059954;28;20473;-72
2023/03/22 10:24:31;;;;;;;6.53;0.90;;;;;;;;;;5061918;28;20123;-71
2023/03/22 10:26:56;;;;;;;7.50;0.88;;;;;;;;;;5054429;28;20031;-70
2023/03/22 10:29:37;;;;;;;5.50;0.77;;;;;;;;;;5063985;28;20444;-70
2023/03/22 10:32:02;;;;;;;;;;;;;;;;;;5061193;28;20269;-70
2023/03/22 10:34:29;;;;;;;1.58;0.73;;;;;;;;;;5058810;28;19913;-70
2023/03/22 10:36:55;;;;;;;4.40;1.20;;;;;;;;;;5060581;28;20031;-70
2023/03/22 10:39:37;;;;;;;3.60;1.05;;;;;;;;;;5054543;28;20021;-71
2023/03/22 10:42:06;;;;;;;3.92;0.95;;;;;;;;;;5065644;28;20016;-71
2023/03/22 10:44:34;;;;;;;7.97;0.90;;;;;;;;;;5061041;28;20238;-71
2023/03/22 10:47:05;;;;;;;5.50;0.93;;;;;;;;;;5057043;28;20075;-71
2023/03/22 10:49:32;;;;;;;1.80;0.80;;;;;;;;;;5049966;28;20031;-77
2023/03/22 10:52:02;;;;;;;8.30;1.05;;;;;;;;;;5055862;28;20573;-71
2023/03/22 10:54:27;;;;;;;6.18;0.80;;;;;;;;;;5056202;28;20063;-71
2023/03/22 10:56:52;;;;;;;1.43;0.67;;;;;;;;;;5055694;28;20032;-72
2023/03/22 10:59:36;;;;;;;2.90;0.80;;;;;;;;;;5051382;28;20756;-72
2023/03/22 11:02:02;;;;;;;3.58;0.98;;;;;;;;;;5050218;28;20279;-71
2023/03/22 11:04:30;;;;;;;4.77;0.47;;;;;;;;;;5053702;28;20099;-72
2023/03/22 11:06:55;;;;;;;4.53;0.82;;;;;;;;;;5059333;28;20267;-71
2023/03/22 11:09:22;;;;;;;4.22;0.98;;;;;;;;;;5057966;28;20039;-71
2023/03/22 11:11:53;;;;;;;4.72;0.65;;;;;;;;;;5052217;28;20013;-72
2023/03/22 11:14:21;;;;;;;3.42;1.13;;;;;;;;;;5054283;28;20032;-72
2023/03/22 11:16:51;;;;;;;3.72;1.00;;;;;;;;;;5060010;28;20496;-72
2023/03/22 11:19:26;;;;;;;4.18;1.10;;;;;;;;;;5057725;28;20021;-73
2023/03/22 11:21:52;;;;;;;4.82;0.60;;;;;;;;;;5060251;28;20028;-72
2023/03/22 11:24:20;;;;;;;6.03;1.05;;;;;;;;;;5064206;28;20017;-71
2023/03/22 11:27:00;;;;;;;5.50;1.00;;;;;;;;;;5059785;28;20104;-72
2023/03/22 11:29:26;;;;;;;0.75;0.40;;;;;;;;;;5061361;28;20067;-73
2023/03/22 11:31:54;;;;;;;1.83;0.63;;;;;;;;;;5057932;28;20021;-72
2023/03/22 11:34:20;;;;;;;8.07;1.20;;;;;;;;;;5056870;28;20066;-72
2023/03/22 11:36:53;;;;;;;3.25;1.00;;;;;;;;;;5056218;28;20071;-73
2023/03/22 11:39:20;;;;;;;6.18;1.23;;;;;;;;;;5055936;28;20020;-72
2023/03/22 11:41:45;;;;;;;3.65;1.15;;;;;;;;;;5065005;28;20023;-71
2023/03/22 11:44:12;;;;;;;4.85;0.77;;;;;;;;;;5053784;28;20100;-73
2023/03/22 11:46:37;;;;;;;4.30;0.93;;;;;;;;;;5058809;28;20043;-71
2023/03/22 11:49:13;;;;;;;2.45;0.60;;;;;;;;;;5058616;28;20470;-72
2023/03/22 11:51:39;;;;;;;7.60;1.10;;;;;;;;;;5065145;28;20107;-72
2023/03/22 11:54:23;;;;;;;6.28;0.90;;;;;;;;;;5064040;28;20089;-72
2023/03/22 11:56:49;;;;;;;3.50;0.88;;;;;;;;;;5055545;28;20021;-72
2023/03/22 11:59:20;;;;;;;2.35;0.50;;;;;;;;;;5062792;28;20066;-71
2023/03/22 12:01:50;;;;;;;6.93;1.17;;;;;;;;;;5054362;28;20025;-72
2023/03/22 12:04:21;;;;;;;5.28;0.65;;;;;;;;;;5064934;28;20066;-73
2023/03/22 12:06:47;;;;;;;3.03;0.70;;;;;;;;;;5054449;28;20115;-72
2023/03/22 12:09:21;;;;;;;3.63;1.20;;;;;;;;;;5053423;28;20099;-72
2023/03/22 12:11:48;;;;;;;6.88;0.90;;;;;;;;;;5050901;28;20039;-73
2023/03/22 12:14:18;;;;;;;5.53;0.90;;;;;;;;;;5060117;28;20029;-72
2023/03/22 12:16:45;;;;;;;4.68;1.13;;;;;;;;;;5065683;28;20021;-72
2023/03/22 12:19:29;;;;;;;1.85;0.50;;;;;;;;;;5051203;28;20021;-71
2023/03/22 12:21:55;;;;;;;6.43;1.38;;;;;;;;;;5056080;28;20024;-72
2023/03/22 12:24:23;;;;;;;13.00;2.35;;;;;;;;;;5052631;28;20020;-73
2023/03/22 12:26:51;;;;;;;3.75;1.10;;;;;;;;;;5057006;28;20085;-70
2023/03/22 12:29:17;;;;;;;0.70;0.55;;;;;;;;;;5066145;28;20024;-72
2023/03/22 12:31:57;;;;;;;6.18;0.70;;;;;;;;;;5052681;28;20025;-71
2023/03/22 12:34:24;;;;;;;9.75;0.85;;;;;;;;;;5053119;28;20501;-70
2023/03/22 12:36:51;;;;;;;3.10;1.10;;;;;;;;;;5055696;28;20028;-71
2023/03/22 12:39:29;;;;;;;4.25;1.17;;;;;;;;;;5055784;28;20350;-71
2023/03/22 12:41:56;;;;;;;4.45;0.88;;;;;;;;;;5061346;28;20036;-71
2023/03/22 12:44:25;;;;;;;3.00;1.30;;;;;;;;;;5051207;28;20035;-71
2023/03/22 12:46:56;;;;;;;5.03;1.52;;;;;;;;;;5056573;28;20020;-71
2023/03/22 12:49:25;;;;;;;5.30;1.65;;;;;;;;;;5060112;28;20017;-70
2023/03/22 12:51:52;;;;;;;4.22;0.50;;;;;;;;;;5056913;28;20291;-71
2023/03/22 12:54:18;;;;;;;8.27;1.15;;;;;;;;;;5051163;28;20055;-70
2023/03/22 12:56:44;;;;;;;6.05;1.88;;;;;;;;;;5049563;28;20052;-71
2023/03/22 12:59:16;;;;;;;9.68;1.10;;;;;;;;;;5062074;28;20130;-71
2023/03/22 13:01:51;;;;;;;5.15;1.15;;;;;;;;;;5057896;28;20025;-71
2023/03/22 13:04:31;;;;;;;4.03;1.02;;;;;;;;;;5059849;28;20070;-72
2023/03/22 13:07:06;;;;;;;5.93;1.38;;;;;;;;;;5057673;28;20024;-71
2023/03/22 13:09:36;;;;;;;3.72;1.33;;;;;;;;;;5050101;28;20055;-71
2023/03/22 13:12:14;;;;;;;1.77;0.75;;;;;;;;;;5061179;28;20553;-71
2023/03/22 13:14:48;;;;;;;9.05;1.80;;;;;;;;;;5062026;28;20056;-71
2023/03/22 13:17:14;;;;;;;2.47;0.52;;;;;;;;;;5053330;28;20057;-71
2023/03/22 13:19:50;;;;;;;3.78;0.80;;;;;;;;;;5055699;28;20623;-71
2023/03/22 13:22:20;;;;;;;2.80;0.60;;;;;;;;;;5054668;28;20036;-72
2023/03/22 13:24:45;;;;;;;;;;;;;;;;;;5054601;28;20108;-72
2023/03/22 13:27:13;;;;;;;3.67;0.88;;;;;;;;;;5056690;28;20038;-72
2023/03/22 13:29:40;;;;;;;8.68;1.35;;;;;;;;;;5060669;28;20025;-71
2023/03/22 13:32:23;;;;;;;5.28;0.57;;;;;;;;;;5059581;28;20100;-71
2023/03/22 13:34:51;;;;;;;5.30;1.40;;;;;;;;;;5059122;28;20456;-71
2023/03/22 13:37:36;;;;;;;4.28;1.10;;;;;;;;;;5055825;28;20024;-71
2023/03/22 13:40:21;;;;;;;5.80;1.13;;;;;;;;;;5053735;28;20749;-72
2023/03/22 13:42:47;;;;;;;10.00;1.60;;;;;;;;;;5048506;28;20040;-72
2023/03/22 13:45:32;;;;;;;5.82;1.45;;;;;;;;;;5056723;28;20017;-72
2023/03/22 13:48:20;;;;;;;3.38;1.02;;;;;;;;;;5054423;28;20100;-72
2023/03/22 13:50:46;;;;;;;8.48;2.63;;;;;;;;;;5053118;28;20024;-72
2023/03/22 13:53:20;;;;;;;1.92;0.43;;;;;;;;;;5056674;28;20027;-72
2023/03/22 13:55:45;;;;;;;4.35;0.85;;;;;;;;;;5068314;28;20102;-72
2023/03/22 13:58:34;;;;;;;2.70;1.17;;;;;;;;;;5062607;28;20020;-72
2023/03/22 14:01:01;;;;;;;2.70;1.35;;;;;;;;;;5060949;28;20036;-72
2023/03/22 14:03:31;;;;;;;14.57;2.03;;;;;;;;;;5056905;28;20027;-72
2023/03/22 14:06:06;;;;;;;5.40;1.30;;;;;;;;;;5059077;28;20020;-72
2023/03/22 14:08:33;;;;;;;4.20;1.20;;;;;;;;;;5060411;28;20021;-72
2023/03/22 14:11:06;;;;;;;2.88;0.85;;;;;;;;;;5055337;28;20143;-72
2023/03/22 14:13:46;;;;;;;4.90;2.00;;;;;;;;;;5065562;28;20394;-72
2023/03/22 14:16:17;;;;;;;5.72;1.20;;;;;;;;;;5056055;28;20017;-72
2023/03/22 14:18:43;;;;;;;4.30;0.88;;;;;;;;;;5061323;28;20028;-72
2023/03/22 14:21:12;;;;;;;1.15;0.60;;;;;;;;;;5065278;28;20016;-72
2023/03/22 14:23:54;;;;;;;6.30;0.63;;;;;;;;;;5055143;28;20115;-72
2023/03/22 14:26:31;;;;;;;7.28;2.03;;;;;;;;;;5057236;28;20031;-72
2023/03/22 14:29:03;;;;;;;5.97;1.08;;;;;;;;;;5055636;28;20021;-72
2023/03/22 14:31:28;;;;;;;3.72;1.00;;;;;;;;;;5055224;28;20025;-72
2023/03/22 14:33:54;;;;;;;11.65;1.77;;;;;;;;;;5055633;28;20033;-72
2023/03/22 14:36:20;;;;;;;4.13;0.68;;;;;;;;;;5060009;28;20029;-72
2023/03/22 14:38:47;;;;;;;4.65;0.95;;;;;;;;;;5051119;28;20033;-71
2023/03/22 14:41:12;;;;;;;4.82;1.05;;;;;;;;;;5053981;28;20044;-71
2023/03/22 14:43:39;;;;;;;6.72;1.20;;;;;;;;;;5052561;28;20500;-71